Time;durP1;ratioP1;P1;durP2;ratioP2;P2;SDS_P1;SDS_P2;PMS_P1;PMS_P2;Temp;Humidity;BMP_temperature;BMP_pressure;BME280_temperature;BME280_humidity;BME280_pressure;Samples;Min_cycle;Max_cycle;Signal;HPM_P1;HPM_P2
2023/04/16 00:00:03;;;;;;;;;;;;;;;28.63;80.34;100674.16;5079302;27;70019;-45
2023/04/16 00:02:38;;;;;;;;;;;;;;;28.69;79.92;100676.00;5079686;27;65744;-44
2023/04/16 00:05:08;;;;;;;;;;;;;;;28.73;79.91;100679.97;5072598;27;70012;-45
2023/04/16 00:07:39;;;;;;;;;;;;;;;28.79;80.13;100678.28;5071872;27;66076;-45
2023/04/16 00:10:09;;;;;;;;;;;;;;;28.77;80.33;100672.28;5079998;27;70008;-44
2023/04/16 00:12:40;;;;;;;;;;;;;;;28.76;80.61;100682.25;5070072;27;65452;-46
2023/04/16 00:15:10;;;;;;;;;;;;;;;28.80;80.93;100696.97;5072621;27;70360;-43
2023/04/16 00:17:40;;;;;;;;;;;;;;;28.80;80.78;100686.16;5080361;27;65921;-44
2023/04/16 00:20:10;;;;;;;;;;;;;;;28.84;80.58;100678.50;5079908;28;70711;-48
2023/04/16 00:22:41;;;;;;;;;;;;;;;28.84;80.24;100683.91;5077552;27;66247;-45
2023/04/16 00:25:11;;;;;;;;;;;;;;;28.83;80.48;100685.75;5074813;27;70336;-45
2023/04/16 00:27:41;;;;;;;;;;;;;;;28.87;80.29;100697.78;5078052;27;66144;-46
2023/04/16 00:30:11;;;;;;;;;;;;;;;28.88;80.54;100694.03;5072836;27;70447;-46
2023/04/16 00:32:41;;;;;;;;;;;;;;;28.90;80.02;100696.53;5061387;28;66859;-44
2023/04/16 00:35:11;;;;;;;;;;;;;;;28.93;80.18;100715.03;5076469;27;69713;-45
2023/04/16 00:37:41;;;;;;;;;;;;;;;29.04;79.89;100708.16;5079026;27;65374;-40
2023/04/16 00:40:11;;;;;;;;;;;;;;;29.06;77.55;100716.88;5081665;27;70597;-41
2023/04/16 00:42:42;;;;;;;;;;;;;;;29.10;76.36;100718.13;5081706;27;66082;-40
2023/04/16 00:45:12;;;;;;;;;;;;;;;29.15;76.09;100729.13;5079489;27;69038;-41
2023/04/16 00:47:42;;;;;;;;;;;;;;;29.21;75.66;100736.38;5095924;27;66412;-42
2023/04/16 00:50:14;;;;;;;;;;;;;;;29.25;74.74;100729.50;5063201;28;69087;-42
2023/04/16 00:52:46;;;;;;;;;;;;;;;29.31;74.94;100725.09;5064502;27;66471;-40
2023/04/16 00:55:17;;;;;;;;;;;;;;;29.35;74.55;100732.56;5081724;27;69760;-40
2023/04/16 00:57:47;;;;;;;;;;;;;;;29.39;74.03;100733.81;5083735;27;66296;-43
2023/04/16 01:00:18;;;;;;;;;;;;;;;29.68;75.82;100737.06;5064068;28;69630;-43
2023/04/16 01:02:48;;;;;;;;;;;;;;;29.75;74.94;100743.22;5083423;27;66019;-41
2023/04/16 01:05:19;;;;;;;;;;;;;;;29.76;75.31;100744.09;5058291;28;69977;-43
2023/04/16 01:07:50;;;;;;;;;;;;;;;29.76;75.80;100750.31;5078057;28;67302;-45
2023/04/16 01:10:20;;;;;;;;;;;;;;;29.76;75.94;100754.91;5052916;28;69916;-40
2023/04/16 01:12:50;;;;;;;;;;;;;;;29.75;76.07;100759.47;5079695;27;66644;-45
2023/04/16 01:15:20;;;;;;;;;;;;;;;29.75;76.25;100755.94;5059175;28;70516;-46
2023/04/16 01:17:50;;;;;;;;;;;;;;;29.75;75.74;100756.75;5073416;27;66476;-45
2023/04/16 01:20:20;;;;;;;;;;;;;;;29.80;76.05;100751.53;5092418;27;68902;-43
2023/04/16 01:22:50;;;;;;;;;;;;;;;29.67;75.45;100730.00;5081061;27;66361;-45
2023/04/16 01:25:21;;;;;;;;;;;;;;;29.88;75.99;100760.44;5078685;27;69637;-47
2023/04/16 01:27:53;;;;;;;;;;;;;;;29.90;75.66;100761.06;5078820;27;65292;-44
2023/04/16 01:30:23;;;;;;;;;;;;;;;29.93;75.47;100761.47;5062694;27;69856;-47
2023/04/16 01:33:11;;;;;;;;;;;;;;;29.96;75.12;100769.13;5061584;28;65595;-44
2023/04/16 01:35:41;;;;;;;;;;;;;;;30.01;74.96;100776.59;5060740;27;70345;-44
2023/04/16 01:38:11;;;;;;;;;;;;;;;30.04;74.54;100789.69;5088766;27;66113;-44
2023/04/16 01:40:42;;;;;;;;;;;;;;;30.05;74.78;100796.75;5088086;27;70327;-43
2023/04/16 01:43:12;;;;;;;;;;;;;;;30.11;74.63;100801.28;5094901;27;67231;-42
2023/04/16 01:45:42;;;;;;;;;;;;;;;30.14;74.56;100798.16;5074921;27;70653;-43
2023/04/16 01:48:12;;;;;;;;;;;;;;;30.21;74.32;100801.66;5076424;27;66324;-44
2023/04/16 01:50:44;;;;;;;;;;;;;;;30.24;73.79;100812.06;5077047;27;71581;-42
2023/04/16 01:53:14;;;;;;;;;;;;;;;30.26;73.68;100815.41;5076154;28;66307;-45
2023/04/16 01:55:44;;;;;;;;;;;;;;;30.31;73.38;100811.19;5088886;27;70149;-43
2023/04/16 01:58:15;;;;;;;;;;;;;;;30.25;73.47;100808.31;5060042;28;65715;-46
2023/04/16 02:00:45;;;;;;;;;;;;;;;30.25;73.33;100812.91;5077303;27;70032;-46
2023/04/16 02:03:17;;;;;;;;;;;;;;;30.27;73.85;100816.22;5075403;27;66854;-45
2023/04/16 02:05:47;;;;;;;;;;;;;;;30.27;73.39;100833.28;5057093;27;69325;-45
2023/04/16 02:08:17;;;;;;;;;;;;;;;30.23;73.50;100826.66;5080680;27;66853;-47
2023/04/16 02:10:49;;;;;;;;;;;;;;;30.27;73.51;100822.47;5076051;27;70880;-45
2023/04/16 02:13:19;;;;;;;;;;;;;;;30.26;73.40;100826.22;5061817;28;66362;-46
2023/04/16 02:15:50;;;;;;;;;;;;;;;30.27;73.38;100827.88;5076942;27;70586;-46
2023/04/16 02:18:31;;;;;;;;;;;;;;;30.28;74.04;100829.53;5074028;27;66680;-48
2023/04/16 02:21:01;;;;;;;;;;;;;;;30.28;74.23;100812.47;5060783;28;69675;-43
2023/04/16 02:23:32;;;;;;;;;;;;;;;30.31;73.76;100813.91;5058394;28;66126;-44
2023/04/16 02:26:02;;;;;;;;;;;;;;;30.35;73.63;100815.13;5044302;28;72185;-43
2023/04/16 02:28:33;;;;;;;;;;;;;;;30.37;73.77;100810.31;5076586;27;66986;-43
2023/04/16 02:31:05;;;;;;;;;;;;;;;30.35;73.07;100812.44;5055987;28;69790;-45
2023/04/16 02:33:41;;;;;;;;;;;;;;;30.40;72.61;100804.50;5059860;27;67454;-45
2023/04/16 02:36:11;;;;;;;;;;;;;;;30.45;72.36;100791.97;5076195;28;70839;-45
2023/04/16 02:38:42;;;;;;;;;;;;;;;30.53;72.05;100780.00;5077847;27;66258;-45
2023/04/16 02:41:12;;;;;;;;;;;;;;;30.58;71.94;100779.34;5073287;27;70559;-45
2023/04/16 02:43:42;;;;;;;;;;;;;;;30.63;71.87;100782.25;5075224;27;66189;-44
2023/04/16 02:46:12;;;;;;;;;;;;;;;30.68;70.95;100780.53;5059464;27;70472;-44
2023/04/16 02:48:43;;;;;;;;;;;;;;;30.72;71.08;100770.06;5070810;27;66696;-44
2023/04/16 02:51:13;;;;;;;;;;;;;;;30.70;70.70;100745.94;5075613;27;69562;-43
2023/04/16 02:53:44;;;;;;;;;;;;;;;30.81;70.36;100768.75;5060075;28;66790;-43
2023/04/16 02:56:15;;;;;;;;;;;;;;;30.86;70.74;100771.63;5091919;27;69326;-43
2023/04/16 02:58:45;;;;;;;;;;;;;;;30.89;70.02;100770.34;5090875;27;66817;-45
2023/04/16 03:01:16;;;;;;;;;;;;;;;30.94;69.81;100774.06;5061821;28;69806;-44
2023/04/16 03:03:47;;;;;;;;;;;;;;;30.96;69.96;100775.72;5059300;28;66529;-44
2023/04/16 03:06:17;;;;;;;;;;;;;;;31.00;69.75;100777.75;5044366;27;69414;-45
2023/04/16 03:08:47;;;;;;;;;;;;;;;31.03;69.62;100780.00;5067692;27;66488;-44
2023/04/16 03:11:19;;;;;;;;;;;;;;;31.06;69.52;100771.44;5078815;27;70425;-45
2023/04/16 03:13:49;;;;;;;;;;;;;;;31.09;69.38;100779.13;5075526;27;66462;-45
2023/04/16 03:16:19;;;;;;;;;;;;;;;31.14;69.05;100779.25;5059664;27;69819;-44
2023/04/16 03:18:50;;;;;;;;;;;;;;;31.16;69.03;100773.63;5075366;27;66959;-44
2023/04/16 03:21:20;;;;;;;;;;;;;;;31.21;68.56;100779.22;5071079;27;70533;-43
2023/04/16 03:23:52;;;;;;;;;;;;;;;31.24;68.59;100780.66;5079731;27;65929;-46
2023/04/16 03:26:22;;;;;;;;;;;;;;;31.27;68.75;100777.47;5061510;27;69979;-46
2023/04/16 03:28:52;;;;;;;;;;;;;;;31.31;68.40;100778.69;5054377;28;66552;-44
2023/04/16 03:31:24;;;;;;;;;;;;;;;31.32;68.33;100777.63;5062816;27;70195;-45
2023/04/16 03:33:54;;;;;;;;;;;;;;;31.37;68.39;100785.94;5078518;27;66861;-45
2023/04/16 03:36:26;;;;;;;;;;;;;;;31.39;68.54;100789.25;5077381;27;70850;-46
2023/04/16 03:38:57;;;;;;;;;;;;;;;31.42;68.41;100796.94;5074954;27;66719;-45
2023/04/16 03:41:27;;;;;;;;;;;;;;;31.45;68.41;100796.47;5079841;27;69565;-45
2023/04/16 03:43:59;;;;;;;;;;;;;;;31.48;68.28;100796.03;5058697;28;66967;-46
2023/04/16 03:46:29;;;;;;;;;;;;;;;31.51;67.99;100800.16;5043943;27;69837;-43
2023/04/16 03:49:00;;;;;;;;;;;;;;;31.32;68.46;100769.50;5079732;27;65760;-45
2023/04/16 03:51:30;;;;;;;;;;;;;;;31.59;68.65;100802.56;5076839;27;69772;-43
2023/04/16 03:54:01;;;;;;;;;;;;;;;31.63;68.53;100803.78;5077226;27;65508;-44
2023/04/16 03:56:31;;;;;;;;;;;;;;;31.66;68.94;100797.06;5093486;27;68566;-43
2023/04/16 03:59:02;;;;;;;;;;;;;;;31.70;69.13;100799.09;5047185;27;65717;-45
2023/04/16 04:01:33;;;;;;;;;;;;;;;31.75;69.23;100796.53;5063077;28;70764;-46
2023/04/16 04:04:05;;;;;;;;;;;;;;;31.78;69.07;100797.94;5091871;27;66667;-43
2023/04/16 04:06:36;;;;;;;;;;;;;;;31.81;70.15;100790.19;5063890;28;69940;-42
2023/04/16 04:09:06;;;;;;;;;;;;;;;31.82;70.45;100796.47;5077794;27;65652;-43
2023/04/16 04:11:37;;;;;;;;;;;;;;;31.77;70.39;100788.16;5076196;27;69861;-46
2023/04/16 04:14:08;;;;;;;;;;;;;;;31.77;70.46;100782.75;5060701;28;66593;-43
2023/04/16 04:16:38;;;;;;;;;;;;;;;31.75;70.47;100782.13;5093674;27;69898;-46
2023/04/16 04:19:09;;;;;;;;;;;;;;;31.78;70.89;100778.97;5091932;27;65676;-43
2023/04/16 04:21:39;;;;;;;;;;;;;;;31.84;70.45;100783.47;5044365;28;70004;-44
2023/04/16 04:24:09;;;;;;;;;;;;;;;31.84;70.26;100780.75;5078134;28;66709;-44
2023/04/16 04:26:40;;;;;;;;;;;;;;;31.85;70.22;100773.47;5058932;28;70965;-43
2023/04/16 04:29:10;;;;;;;;;;;;;;;31.87;70.50;100772.16;5042318;28;65326;-43
2023/04/16 04:31:41;;;;;;;;;;;;;;;31.90;70.45;100769.00;5077039;27;69756;-43
2023/04/16 04:34:11;;;;;;;;;;;;;;;31.90;70.61;100766.31;5052164;28;66816;-46
2023/04/16 04:36:41;;;;;;;;;;;;;;;31.93;70.57;100755.03;5059424;28;68717;-45
2023/04/16 04:39:13;;;;;;;;;;;;;;;31.96;70.00;100759.97;5089865;27;66969;-43
2023/04/16 04:41:44;;;;;;;;;;;;;;;31.98;70.10;100751.59;5057404;27;70520;-43
2023/04/16 04:44:15;;;;;;;;;;;;;;;31.98;70.18;100747.03;5058254;28;66986;-44
2023/04/16 04:46:45;;;;;;;;;;;;;;;32.02;69.83;100736.53;5049545;28;69355;-44
2023/04/16 04:49:15;;;;;;;;;;;;;;;32.08;69.79;100732.88;5059554;28;66953;-44
2023/04/16 04:51:45;;;;;;;;;;;;;;;32.13;69.51;100733.00;5056787;28;69332;-44
2023/04/16 04:54:15;;;;;;;;;;;;;;;32.19;69.50;100725.81;5076591;27;66432;-44
2023/04/16 04:56:46;;;;;;;;;;;;;;;32.23;68.97;100727.00;5091448;27;70583;-43
2023/04/16 04:59:16;;;;;;;;;;;;;;;32.27;68.83;100717.34;5091989;27;67122;-44
2023/04/16 05:01:46;;;;;;;;;;;;;;;32.28;68.55;100706.25;5059740;28;71561;-44
2023/04/16 05:04:17;;;;;;;;;;;;;;;32.31;68.37;100702.22;5076239;27;66413;-44
2023/04/16 05:06:47;;;;;;;;;;;;;;;32.35;68.16;100692.56;5079524;27;70303;-45
2023/04/16 05:09:18;;;;;;;;;;;;;;;32.37;68.14;100695.84;5073665;27;66293;-45
2023/04/16 05:11:48;;;;;;;;;;;;;;;32.40;67.89;100689.13;5058732;27;70221;-43
2023/04/16 05:14:18;;;;;;;;;;;;;;;32.41;67.82;100685.38;5078032;27;66923;-44
2023/04/16 05:16:48;;;;;;;;;;;;;;;32.32;68.49;100687.63;5073413;27;69855;-44
2023/04/16 05:19:20;;;;;;;;;;;;;;;32.24;69.13;100685.25;5073089;27;66375;-43
2023/04/16 05:21:50;;;;;;;;;;;;;;;32.20;69.28;100689.47;5072861;27;69802;-45
2023/04/16 05:24:21;;;;;;;;;;;;;;;32.16;69.22;100677.44;5078696;27;66378;-43
2023/04/16 05:26:52;;;;;;;;;;;;;;;32.14;69.59;100668.72;5075489;27;70587;-41
2023/04/16 05:29:22;;;;;;;;;;;;;;;32.01;67.67;100659.75;5078735;28;66758;-43
2023/04/16 05:31:52;;;;;;;;;;;;;;;31.85;65.00;100660.38;5075551;27;69382;-43
2023/04/16 05:34:23;;;;;;;;;;;;;;;31.67;63.01;100657.72;5075241;27;66817;-43
2023/04/16 05:36:53;;;;;;;;;;;;;;;31.52;62.18;100650.84;5058010;28;69110;-41
2023/04/16 05:39:23;;;;;;;;;;;;;;;31.42;61.04;100645.13;5075783;27;66739;-42
2023/04/16 05:41:53;;;;;;;;;;;;;;;31.31;60.12;100649.41;5078406;27;69354;-42
2023/04/16 05:44:23;;;;;;;;;;;;;;;31.22;58.90;100656.22;5079723;27;67029;-45
2023/04/16 05:46:54;;;;;;;;;;;;;;;31.16;57.75;100646.28;5076419;27;70294;-45
2023/04/16 05:49:24;;;;;;;;;;;;;;;31.10;56.68;100642.59;5075623;27;66853;-43
2023/04/16 05:51:54;;;;;;;;;;;;;;;31.06;56.36;100635.16;5080843;27;69964;-43
2023/04/16 05:54:25;;;;;;;;;;;;;;;31.03;56.26;100622.88;5078278;27;66757;-43
2023/04/16 05:56:55;;;;;;;;;;;;;;;30.99;55.79;100619.00;5079966;27;70229;-42
2023/04/16 05:59:25;;;;;;;;;;;;;;;30.94;55.00;100610.72;5077871;27;67432;-41
2023/04/16 06:01:56;;;;;;;;;;;;;;;30.85;54.40;100601.25;5071616;27;70814;-44
2023/04/16 06:04:27;;;;;;;;;;;;;;;30.84;53.81;100594.16;5078518;27;66837;-43
2023/04/16 06:06:57;;;;;;;;;;;;;;;30.78;53.30;100589.63;5080277;27;69852;-44
2023/04/16 06:09:27;;;;;;;;;;;;;;;30.72;52.17;100592.19;5078716;27;66674;-45
2023/04/16 06:11:58;;;;;;;;;;;;;;;30.69;51.87;100592.63;5080600;27;70012;-44
2023/04/16 06:14:28;;;;;;;;;;;;;;;30.69;51.76;100589.94;5060060;28;65469;-50
2023/04/16 06:16:58;;;;;;;;;;;;;;;30.67;50.75;100589.34;5057357;27;70543;-44
2023/04/16 06:19:29;;;;;;;;;;;;;;;30.64;50.31;100584.38;5079329;27;65381;-45
2023/04/16 06:21:59;;;;;;;;;;;;;;;30.62;50.05;100572.97;5079782;27;70436;-44
2023/04/16 06:24:30;;;;;;;;;;;;;;;30.61;49.45;100575.88;5079317;27;67204;-43
2023/04/16 06:27:00;;;;;;;;;;;;;;;30.61;49.04;100576.69;5079828;27;69935;-44
2023/04/16 06:29:30;;;;;;;;;;;;;;;30.59;48.79;100559.88;5075462;27;65993;-43
2023/04/16 06:32:09;;;;;;;;;;;;;;;30.59;48.81;100554.47;5077817;27;69380;-44
2023/04/16 06:34:39;;;;;;;;;;;;;;;30.57;48.39;100551.16;5061856;27;65532;-44
2023/04/16 06:37:09;;;;;;;;;;;;;;;30.56;48.19;100552.19;5076681;27;70112;-42
2023/04/16 06:39:40;;;;;;;;;;;;;;;30.56;47.77;100554.88;5073699;27;66882;-44
2023/04/16 06:42:10;;;;;;;;;;;;;;;30.59;47.52;100549.03;5058702;28;69276;-43
2023/04/16 06:44:40;;;;;;;;;;;;;;;30.57;47.65;100545.72;5077128;27;66515;-43
2023/04/16 06:47:10;;;;;;;;;;;;;;;30.58;47.06;100541.97;5078447;27;71321;-42
2023/04/16 06:49:41;;;;;;;;;;;;;;;30.59;47.17;100538.22;5077816;27;66127;-41
2023/04/16 06:52:11;;;;;;;;;;;;;;;30.58;47.05;100536.53;5076702;27;70305;-41
2023/04/16 06:54:42;;;;;;;;;;;;;;;30.60;46.64;100534.44;5076700;27;65893;-42
2023/04/16 06:57:12;;;;;;;;;;;;;;;30.65;46.67;100531.88;5078307;27;70160;-43
2023/04/16 06:59:42;;;;;;;;;;;;;;;30.64;46.51;100534.81;5078754;27;66858;-42
2023/04/16 07:02:12;;;;;;;;;;;;;;;30.64;46.66;100527.50;5063515;28;70957;-43
2023/04/16 07:04:43;;;;;;;;;;;;;;;30.65;46.38;100521.06;5075921;27;66982;-42
2023/04/16 07:07:13;;;;;;;;;;;;;;;30.65;45.96;100515.66;5074663;27;70074;-41
2023/04/16 07:09:43;;;;;;;;;;;;;;;30.66;46.06;100500.22;5078361;27;65849;-42
2023/04/16 07:12:13;;;;;;;;;;;;;;;30.66;45.57;100492.09;5078339;27;69145;-43
2023/04/16 07:14:44;;;;;;;;;;;;;;;30.69;45.79;100495.16;5073411;27;66783;-41
2023/04/16 07:17:14;;;;;;;;;;;;;;;30.65;45.51;100491.28;5078729;27;70581;-41
2023/04/16 07:19:44;;;;;;;;;;;;;;;30.41;45.42;100454.31;5077650;28;65476;-42
2023/04/16 07:22:15;;;;;;;;;;;;;;;30.68;45.79;100488.13;5075656;27;70720;-42
2023/04/16 07:24:45;;;;;;;;;;;;;;;30.79;47.01;100470.28;5077206;28;66944;-41
2023/04/16 07:27:16;;;;;;;;;;;;;;;30.99;48.03;100470.00;5074580;28;70097;-42
2023/04/16 07:29:48;;;;;;;;;;;;;;;31.13;48.93;100457.09;5039340;27;66978;-42
2023/04/16 07:32:19;;;;;;;;;;;;;;;31.30;49.23;100455.34;5077929;27;68303;-42
2023/04/16 07:34:49;;;;;;;;;;;;;;;31.42;50.01;100449.97;5089734;27;65416;-44
2023/04/16 07:37:20;;;;;;;;;;;;;;;31.54;50.59;100452.72;5079634;27;69839;-42
2023/04/16 07:39:51;;;;;;;;;;;;;;;31.61;51.14;100443.38;5079391;27;66014;-43
2023/04/16 07:42:24;;;;;;;;;;;;;;;31.74;51.28;100436.09;5076861;28;70263;-43
2023/04/16 07:44:54;;;;;;;;;;;;;;;31.81;51.98;100434.88;5078161;27;66600;-42
2023/04/16 07:47:25;;;;;;;;;;;;;;;31.89;52.53;100428.28;5059623;27;70035;-42
2023/04/16 07:49:55;;;;;;;;;;;;;;;31.95;52.48;100435.47;5070118;27;66185;-43
2023/04/16 07:52:26;;;;;;;;;;;;;;;32.02;53.20;100428.06;5059758;27;70302;-43
2023/04/16 07:54:57;;;;;;;;;;;;;;;32.09;53.61;100427.91;5076176;27;66017;-43
2023/04/16 07:57:27;;;;;;;;;;;;;;;32.15;54.36;100431.56;5075083;27;70224;-44
2023/04/16 07:59:57;;;;;;;;;;;;;;;32.21;54.93;100430.63;5075289;27;66778;-45
2023/04/16 08:02:27;;;;;;;;;;;;;;;32.27;56.10;100418.78;5076221;27;70356;-42
2023/04/16 08:04:58;;;;;;;;;;;;;;;32.34;58.55;100429.50;5074108;27;65659;-43
2023/04/16 08:07:28;;;;;;;;;;;;;;;32.38;59.95;100431.50;5076233;27;69704;-41
2023/04/16 08:10:02;;;;;;;;;;;;;;;32.44;61.52;100430.53;5073944;27;65705;-42
2023/04/16 08:12:33;;;;;;;;;;;;;;;32.52;62.34;100420.41;5076934;27;70673;-42
2023/04/16 08:15:06;;;;;;;;;;;;;;;32.57;62.22;100413.16;5077988;27;65767;-43
2023/04/16 08:17:37;;;;;;;;;;;;;;;32.59;62.63;100418.34;5074396;27;70620;-42
2023/04/16 08:20:08;;;;;;;;;;;;;;;32.63;63.37;100411.38;5074142;27;66004;-43
2023/04/16 08:22:41;;;;;;;;;;;;;;;32.69;64.60;100405.78;5076751;27;70331;-41
2023/04/16 08:25:12;;;;;;;;;;;;;;;32.75;65.15;100406.69;5075628;27;67117;-45
2023/04/16 08:27:42;;;;;;;;;;;;;;;32.54;65.24;100348.50;5072175;27;69367;-44
2023/04/16 08:30:12;;;;;;;;;;;;;;;32.93;65.57;100394.75;5072521;27;64642;-43
2023/04/16 08:32:42;;;;;;;;;;;;;;;33.00;65.35;100394.66;5076674;27;70105;-43
2023/04/16 08:35:15;;;;;;;;;;;;;;;33.07;64.86;100392.56;5077208;27;65898;-44
2023/04/16 08:37:46;;;;;;;;;;;;;;;33.09;64.93;100388.53;5075655;27;70694;-42
2023/04/16 08:40:16;;;;;;;;;;;;;;;33.15;64.54;100390.28;5086802;27;66631;-42
2023/04/16 08:42:54;;;;;;;;;;;;;;;33.15;64.98;100386.72;5050846;27;69902;-42
2023/04/16 08:45:25;;;;;;;;;;;;;;;33.18;65.18;100396.28;5075194;27;65943;-42
2023/04/16 08:47:56;;;;;;;;;;;;;;;33.18;65.08;100391.66;5076285;27;69923;-41
2023/04/16 08:50:27;;;;;;;;;;;;;;;33.21;64.77;100398.50;5093448;27;66508;-43
2023/04/16 08:52:59;;;;;;;;;;;;;;;33.21;65.13;100402.06;5075561;27;70200;-42
2023/04/16 08:55:36;;;;;;;;;;;;;;;33.30;64.40;100389.69;5077873;27;67183;-41
2023/04/16 08:58:08;;;;;;;;;;;;;;;33.40;63.95;100382.75;5079798;27;70249;-41
2023/04/16 09:00:42;;;;;;;;;;;;;;;33.50;63.44;100388.34;5080857;27;66089;-40
2023/04/16 09:03:12;;;;;;;;;;;;;;;33.54;63.19;100384.09;5063661;28;70587;-41
2023/04/16 09:05:43;;;;;;;;;;;;;;;33.40;62.92;100350.94;5081218;27;65288;-40
2023/04/16 09:08:14;;;;;;;;;;;;;;;33.61;62.66;100387.47;5079304;27;70577;-40
2023/04/16 09:10:44;;;;;;;;;;;;;;;33.64;62.48;100389.69;5082490;27;66606;-40
2023/04/16 09:13:15;;;;;;;;;;;;;;;33.66;62.37;100398.41;5082036;27;70061;-46
2023/04/16 09:15:46;;;;;;;;;;;;;;;33.68;62.37;100393.53;5467456;22;66533;-40
2023/04/16 09:18:17;;;;;;;;;;;;;;;33.69;62.37;100387.03;5075610;27;70607;-41
2023/04/16 09:20:48;;;;;;;;;;;;;;;33.72;61.68;100386.53;5093925;27;63981;-41
2023/04/16 09:23:18;;;;;;;;;;;;;;;33.73;61.23;100388.16;5082960;27;70067;-40
2023/04/16 09:25:48;;;;;;;;;;;;;;;33.73;61.51;100393.59;5098952;27;65601;-40
2023/04/16 09:28:37;;;;;;;;;;;;;;;33.72;61.54;100402.03;5090678;27;69134;-40
2023/04/16 09:31:08;;;;;;;;;;;;;;;33.72;61.64;100408.28;5091125;27;65728;-40
2023/04/16 09:33:38;;;;;;;;;;;;;;;33.72;61.57;100394.69;5092157;27;69113;-40
2023/04/16 09:36:08;;;;;;;;;;;;;;;33.71;61.39;100395.78;5093521;27;65505;-40
2023/04/16 09:38:48;;;;;;;;;;;;;;;33.71;61.16;100387.59;5090880;27;70139;-40
2023/04/16 09:41:19;;;;;;;;;;;;;;;33.69;61.12;100392.47;5096836;27;65533;-42
2023/04/16 09:43:57;;;;;;;;;;;;;;;33.71;61.03;100395.78;5097242;27;70048;-40
2023/04/16 09:46:34;;;;;;;;;;;;;;;33.70;61.11;100404.16;5086026;27;66051;-40
2023/04/16 09:49:08;;;;;;;;;;;;;;;33.68;60.87;100407.13;5093105;27;69658;-40
2023/04/16 09:51:46;;;;;;;;;;;;;;;33.68;60.73;100412.56;5094406;27;66077;-41
2023/04/16 09:54:18;;;;;;;;;;;;;;;33.67;60.69;100416.38;5092013;27;69708;-41
2023/04/16 09:56:49;;;;;;;;;;;;;;;33.54;62.63;100422.16;5090546;27;65795;-40
2023/04/16 09:59:20;;;;;;;;;;;;;;;33.35;63.94;100430.56;5091885;27;70377;-40
2023/04/16 10:01:52;;;;;;;;;;;;;;;33.23;64.67;100448.00;5096873;27;65911;-40
2023/04/16 10:04:52;;;;;;;;;;;;;;;33.12;65.27;100455.16;5093267;27;70543;-39
2023/04/16 10:07:26;;;;;;;;;;;;;;;33.06;66.46;100458.88;5092951;27;66590;-39
2023/04/16 10:10:00;;;;;;;;;;;;;;;33.00;67.13;100454.44;5104667;27;70666;-40
2023/04/16 10:12:34;;;;;;;;;;;;;;;32.94;67.87;100456.19;5089274;27;65948;-40
2023/04/16 10:15:05;;;;;;;;;;;;;;;32.92;67.91;100448.28;5098313;27;70107;-40
2023/04/16 10:17:35;;;;;;;;;;;;;;;32.93;67.91;100455.38;5077846;27;66881;-40
2023/04/16 10:20:06;;;;;;;;;;;;;;;33.06;67.09;100445.28;5088135;27;69180;-39
2023/04/16 10:22:39;;;;;;;;;;;;;;;33.15;66.62;100460.97;5094852;27;66151;-41
2023/04/16 10:25:10;;;;;;;;;;;;;;;33.21;66.08;100467.31;5093359;27;68895;-43
2023/04/16 10:27:41;;;;;;;;;;;;;;;33.25;66.07;100484.75;5089706;27;66251;-39
2023/04/16 10:30:12;;;;;;;;;;;;;;;33.27;65.79;100498.94;5088366;27;70152;-40
2023/04/16 10:32:44;;;;;;;;;;;;;;;33.30;65.52;100503.06;5091236;27;67068;-39
2023/04/16 10:35:18;;;;;;;;;;;;;;;33.30;65.41;100498.44;5089362;27;70570;-39
2023/04/16 10:37:50;;;;;;;;;;;;;;;33.31;65.50;100521.81;5094924;27;65780;-39
2023/04/16 10:40:25;;;;;;;;;;;;;;;33.33;65.67;100541.44;5093842;27;70828;-39
2023/04/16 10:42:56;;;;;;;;;;;;;;;33.27;66.30;100558.72;5092115;27;66753;-39
2023/04/16 10:45:31;;;;;;;;;;;;;;;33.10;67.08;100568.75;5087773;27;70584;-41
2023/04/16 10:48:05;;;;;;;;;;;;;;;32.96;68.11;100579.06;5089216;27;66119;-42
2023/04/16 10:50:36;;;;;;;;;;;;;;;32.88;68.41;100572.09;5094571;27;70253;-42
2023/04/16 10:53:25;;;;;;;;;;;;;;;32.81;69.08;100568.69;5093118;27;66166;-41
2023/04/16 10:55:57;;;;;;;;;;;;;;;32.55;69.67;100545.63;5090313;27;70523;-42
2023/04/16 10:58:28;;;;;;;;;;;;;;;32.70;70.09;100591.28;5096812;27;65842;-40
2023/04/16 11:01:00;;;;;;;;;;;;;;;32.66;70.77;100580.06;5088203;27;70889;-42
2023/04/16 11:03:31;;;;;;;;;;;;;;;32.61;71.25;100571.81;5088426;27;66287;-41
2023/04/16 11:06:23;;;;;;;;;;;;;;;32.56;71.58;100557.31;5094799;27;69917;-40
2023/04/16 11:08:53;;;;;;;;;;;;;;;32.55;72.05;100559.19;5103735;27;66602;-43
2023/04/16 11:11:23;;;;;;;;;;;;;;;32.53;72.33;100563.22;5089260;27;70314;-44
2023/04/16 11:13:56;;;;;;;;;;;;;;;32.52;72.95;100572.44;5092109;27;66494;-42
2023/04/16 11:16:26;;;;;;;;;;;;;;;32.53;73.23;100579.50;5087933;27;70693;-40
2023/04/16 11:18:57;;;;;;;;;;;;;;;32.47;73.54;100571.25;5092966;27;66102;-40
2023/04/16 11:21:27;;;;;;;;;;;;;;;32.47;73.92;100576.69;5096952;27;70065;-41
2023/04/16 11:23:58;;;;;;;;;;;;;;;32.48;73.71;100596.50;5085428;27;66244;-41
2023/04/16 11:26:29;;;;;;;;;;;;;;;32.36;70.16;100607.34;5103013;27;69015;-40
2023/04/16 11:29:00;;;;;;;;;;;;;;;32.21;68.68;100620.59;5088703;27;66253;-41
2023/04/16 11:31:30;;;;;;;;;;;;;;;32.10;69.45;100618.69;5083595;27;69783;-42
2023/04/16 11:34:02;;;;;;;;;;;;;;;31.87;69.89;100587.72;5090758;27;65857;-44
2023/04/16 11:36:49;;;;;;;;;;;;;;;31.97;68.25;100625.97;5086970;27;70632;-38
2023/04/16 11:39:19;;;;;;;;;;;;;;;31.88;66.52;100640.91;5090119;27;66497;-40
2023/04/16 11:41:54;;;;;;;;;;;;;;;31.81;66.39;100653.75;5089633;27;70250;-41
2023/04/16 11:44:26;;;;;;;;;;;;;;;31.75;64.99;100660.09;5089373;27;66578;-40
2023/04/16 11:46:56;;;;;;;;;;;;;;;31.67;63.13;100665.84;5094292;27;70181;-41
2023/04/16 11:49:27;;;;;;;;;;;;;;;31.60;62.43;100674.91;5091431;27;65850;-41
2023/04/16 11:51:59;;;;;;;;;;;;;;;31.54;60.87;100683.16;5090643;27;71176;-40
2023/04/16 11:54:33;;;;;;;;;;;;;;;31.45;59.92;100690.75;5087064;27;66665;-39
2023/04/16 11:57:03;;;;;;;;;;;;;;;31.39;58.84;100688.97;5089856;27;69846;-41
2023/04/16 11:59:35;;;;;;;;;;;;;;;31.32;58.50;100688.19;5083392;27;66201;-39
2023/04/16 12:02:39;;;;;;;;;;;;;;;31.25;57.26;100692.88;5090634;27;70838;-39
2023/04/16 12:05:29;;;;;;;;;;;;;;;31.23;57.82;100690.41;5094869;27;65473;-40
2023/04/16 12:08:00;;;;;;;;;;;;;;;31.19;56.67;100704.63;5095339;27;70366;-40
2023/04/16 12:10:33;;;;;;;;;;;;;;;31.14;56.29;100724.25;5089066;27;65597;-41
2023/04/16 12:13:10;;;;;;;;;;;;;;;31.09;56.25;100727.66;5090090;27;69164;-41
2023/04/16 12:15:47;;;;;;;;;;;;;;;31.06;56.77;100736.22;5086150;27;66445;-44
2023/04/16 12:18:19;;;;;;;;;;;;;;;31.05;57.16;100726.44;5092213;27;69597;-39
2023/04/16 12:20:52;;;;;;;;;;;;;;;31.01;56.75;100730.66;5094605;27;66384;-40
2023/04/16 12:23:29;;;;;;;;;;;;;;;31.00;56.24;100729.00;5095627;27;69850;-43
2023/04/16 12:26:09;;;;;;;;;;;;;;;30.98;56.00;100731.13;5089411;27;65970;-43
2023/04/16 12:28:39;;;;;;;;;;;;;;;30.97;55.52;100734.84;5091942;27;69829;-40
2023/04/16 12:31:09;;;;;;;;;;;;;;;30.95;55.46;100742.38;5088257;27;66147;-42
2023/04/16 12:33:41;;;;;;;;;;;;;;;30.97;54.84;100742.97;5094952;27;70078;-43
2023/04/16 12:36:18;;;;;;;;;;;;;;;30.96;54.38;100741.34;5097098;27;66657;-42
2023/04/16 12:38:48;;;;;;;;;;;;;;;30.95;54.79;100736.97;5091230;27;69912;-41
2023/04/16 12:41:18;;;;;;;;;;;;;;;30.97;54.34;100729.44;5094448;27;66266;-41
2023/04/16 12:43:48;;;;;;;;;;;;;;;30.89;55.47;100724.31;5093996;27;71580;-41
2023/04/16 12:46:40;;;;;;;;;;;;;;;30.88;55.88;100730.78;5077085;27;66414;-44
2023/04/16 12:49:11;;;;;;;;;;;;;;;30.84;58.01;100735.00;5100623;27;70193;-43
2023/04/16 12:51:41;;;;;;;;;;;;;;;31.03;56.90;100749.38;5092985;27;66079;-41
2023/04/16 12:54:11;;;;;;;;;;;;;;;31.04;57.41;100761.91;5094789;27;69811;-42
2023/04/16 12:56:42;;;;;;;;;;;;;;;31.08;56.89;100777.47;5084574;27;66665;-41